Cobb County-Mc Collum Field
KRYY : now visible

Airfield :











YOU CAN JOIN US ON...

 
LOGIN :

Register | Disclaimer

   EN    FR    IT 

 









Legend :    VFR   Marginal VFR   IFR   Intensive IFR   Very Intensive IFR
Visi :
Ceiling :
>= 8 km
>= 3000ft
5 to 8 km
1000 to 3000 ft
1500m to 5 km
500 to 1000 ft
800 to 1500m
200 to 500 ft
< 800m
< 200 ft
Symbols :   Thunderstorms  Fog  Heavy snow  Heavy precipitations  Wind > 20 kt







- Airport Elevation : 1040 ft


KRYY - Cobb County-Mc Collum Field

CURRENT METAR :
  • 191555Z 25007KT 4SM -RA BR BKN010 BKN029 18/17 A2948 RMK AO2 P0000

EXPIRED METARs :
  • 191541Z 22006KT 4SM -RA BR FEW008 BKN041 OVC060 18/17 A2950 RMK AO2 P0002
  • 191535Z 22005KT 4SM -RA BR SCT013 BKN049 OVC070 18/17 A2949 RMK AO2 P0001
  • 191504Z 20003KT 4SM -RA BR BKN013 OVC050 18/17 A2950 RMK AO2 P0000
  • 191448Z 00000KT 10SM -RA FEW009 BKN015 OVC019 18/17 A2950 RMK AO2 SLP713 P0004 60046 T01780172 58010
  • 191441Z 00000KT 10SM -RA FEW005 BKN013 OVC019 18/17 A2950 RMK AO2 P0004
  • 191348Z 13004KT 4SM RA BR BKN008 BKN031 OVC095 17/17 A2951 RMK AO2 SLP717 P0021 T01720167
  • 191328Z VRB05KT 3SM RA BR BKN006 OVC013 17/17 A2952 RMK AO2 CIG 004V008 P0013

TAF KRYY
Valid from the 19 at 12:00 until the 20 at 12:00 UTC


191135Z 1912/2012 12005KT 4SM SHRA BR BKN006 BKN018 OVC070
FM191400 19009G17KT 5SM -SHRA OVC015
FM191600 22008KT 6SM -SHRA OVC020
FM192000 25012G20KT P6SM -SHRA OVC018
FM192300 26014G23KT P6SM OVC012
FM200500 24012KT P6SM OVC015
KZTL FIR / North America



MET'MAP, your aeronautical weather chart ! - Copyright ORBIFLY December 2007 - Disclaimer

ORBIFLY MET'MAP TEAM :

Programming & Development : Alexandra Zaïnal
Concept & Development : Baudouin d'Aumeries
Co-Development & Prog : Marc-Olivier Méhu
Technical & hardware support : Manuel Goepfert

Contact : metmap@orbifly.com




SOURCES & CREDITS :

   NOAA       Earth
Advisory